Nimba Airport

Jump to: basic info | weather | comments

Related pages: nearby airports | nearby navaids | notams | map

Basic information (top)

Codes: NIA GLNA
Location: lon 7.500000, lat -8.600000, elev 1,632 ft / 497 m msl
Status: small_airport
Scheduled airline service: no
Links: Wikipedia Mobile

Weather (top)

Current conditions for Nzerekore Airport 19nm (36km) NNW (rec'd 2014/08/20 09:00Z):

GUNZ 200900Z 09004KT 8000 -RA OVC013 21/20 Q1015 NOSIG

Airport forecast for Roberts International Airport 130nm (240km) SW (rec'd 2014/08/27 12:51Z):

TAF GLRB 271000Z 2712/2818 25012KT 6000 RA SCT004 OVC014 FEW24CB 
      BECMG 2713/2715 20014KT 9000 BKN016 FEW026CB 
      TEMPO 2716/2720 24010KT 5000 RA BKN004 OVC014 FEW025CB 
      BECMG 2721/2723 18010KT 9000 BKN013

Latest comments (top)

No comments yet for Nimba Airport

More... (top)

See also NOTAMs and nearby airports and navaids, or visit the Nimba Airport page at the main OurAirports website..